sensor_id;sensor_type;location;lat;lon;timestamp;temperature;humidity
15765;DHT22;7983;50.744;7.086;2023-05-10T00:01:43;14.80;99.90
15765;DHT22;7983;50.744;7.086;2023-05-10T00:04:11;14.80;99.90
15765;DHT22;7983;50.744;7.086;2023-05-10T00:06:36;14.80;99.90
15765;DHT22;7983;50.744;7.086;2023-05-10T00:09:02;14.80;99.90
15765;DHT22;7983;50.744;7.086;2023-05-10T00:11:29;14.80;99.90
15765;DHT22;7983;50.744;7.086;2023-05-10T00:13:56;14.90;99.90
15765;DHT22;7983;50.744;7.086;2023-05-10T00:16:24;14.80;99.90
15765;DHT22;7983;50.744;7.086;2023-05-10T00:18:52;14.80;99.90
15765;DHT22;7983;50.744;7.086;2023-05-10T00:21:20;14.80;99.90
15765;DHT22;7983;50.744;7.086;2023-05-10T00:23:46;14.90;99.90
15765;DHT22;7983;50.744;7.086;2023-05-10T00:26:12;14.80;99.90
15765;DHT22;7983;50.744;7.086;2023-05-10T00:28:37;14.80;99.90
15765;DHT22;7983;50.744;7.086;2023-05-10T00:31:03;14.80;99.90
15765;DHT22;7983;50.744;7.086;2023-05-10T00:33:31;14.80;99.90
15765;DHT22;7983;50.744;7.086;2023-05-10T00:35:56;14.80;99.90
15765;DHT22;7983;50.744;7.086;2023-05-10T00:38:22;14.80;99.90
15765;DHT22;7983;50.744;7.086;2023-05-10T00:40:48;14.80;99.90
15765;DHT22;7983;50.744;7.086;2023-05-10T00:43:16;14.80;99.90
15765;DHT22;7983;50.744;7.086;2023-05-10T00:45:42;14.80;99.90
15765;DHT22;7983;50.744;7.086;2023-05-10T00:48:10;14.80;99.90
15765;DHT22;7983;50.744;7.086;2023-05-10T00:50:38;14.80;99.90
15765;DHT22;7983;50.744;7.086;2023-05-10T00:53:06;14.80;99.90
15765;DHT22;7983;50.744;7.086;2023-05-10T00:55:32;14.80;99.90
15765;DHT22;7983;50.744;7.086;2023-05-10T00:57:58;14.80;99.90
15765;DHT22;7983;50.744;7.086;2023-05-10T01:00:24;14.80;99.90
15765;DHT22;7983;50.744;7.086;2023-05-10T01:02:52;14.80;99.90
15765;DHT22;7983;50.744;7.086;2023-05-10T01:05:18;14.80;99.90
15765;DHT22;7983;50.744;7.086;2023-05-10T01:07:46;14.80;99.90
15765;DHT22;7983;50.744;7.086;2023-05-10T01:10:14;14.80;99.90
15765;DHT22;7983;50.744;7.086;2023-05-10T01:12:44;14.80;99.90
15765;DHT22;7983;50.744;7.086;2023-05-10T01:15:11;14.70;99.90
15765;DHT22;7983;50.744;7.086;2023-05-10T01:17:40;14.80;99.90
15765;DHT22;7983;50.744;7.086;2023-05-10T01:20:09;14.80;99.90
15765;DHT22;7983;50.744;7.086;2023-05-10T01:22:50;14.70;99.90
15765;DHT22;7983;50.744;7.086;2023-05-10T01:34:07;14.80;99.90
15765;DHT22;7983;50.744;7.086;2023-05-10T01:36:45;14.70;99.90
15765;DHT22;7983;50.744;7.086;2023-05-10T01:39:20;14.70;99.90
15765;DHT22;7983;50.744;7.086;2023-05-10T01:41:54;14.70;99.90
15765;DHT22;7983;50.744;7.086;2023-05-10T01:44:29;14.70;99.90
15765;DHT22;7983;50.744;7.086;2023-05-10T01:47:16;14.70;99.90
15765;DHT22;7983;50.744;7.086;2023-05-10T01:49:54;14.70;99.90
15765;DHT22;7983;50.744;7.086;2023-05-10T01:52:26;14.70;99.90
15765;DHT22;7983;50.744;7.086;2023-05-10T01:55:02;14.70;99.90
15765;DHT22;7983;50.744;7.086;2023-05-10T01:57:37;14.70;99.90
15765;DHT22;7983;50.744;7.086;2023-05-10T02:00:07;14.70;99.90
15765;DHT22;7983;50.744;7.086;2023-05-10T02:02:36;14.60;99.90
15765;DHT22;7983;50.744;7.086;2023-05-10T02:05:08;14.60;99.90
15765;DHT22;7983;50.744;7.086;2023-05-10T02:07:37;14.60;99.90
15765;DHT22;7983;50.744;7.086;2023-05-10T02:10:04;14.70;99.90
15765;DHT22;7983;50.744;7.086;2023-05-10T02:12:32;14.60;99.90
15765;DHT22;7983;50.744;7.086;2023-05-10T02:15:06;14.60;99.90
15765;DHT22;7983;50.744;7.086;2023-05-10T02:17:35;14.60;99.90
15765;DHT22;7983;50.744;7.086;2023-05-10T02:20:03;14.60;99.90
15765;DHT22;7983;50.744;7.086;2023-05-10T02:22:33;14.60;99.90
15765;DHT22;7983;50.744;7.086;2023-05-10T02:25:03;14.60;99.90
15765;DHT22;7983;50.744;7.086;2023-05-10T02:27:32;14.60;99.90
15765;DHT22;7983;50.744;7.086;2023-05-10T02:30:04;14.60;99.90
15765;DHT22;7983;50.744;7.086;2023-05-10T02:32:33;14.60;99.90
15765;DHT22;7983;50.744;7.086;2023-05-10T02:35:01;14.60;99.90
15765;DHT22;7983;50.744;7.086;2023-05-10T02:37:29;14.60;99.90
15765;DHT22;7983;50.744;7.086;2023-05-10T02:39:56;14.60;99.90
15765;DHT22;7983;50.744;7.086;2023-05-10T02:42:29;14.60;99.90
15765;DHT22;7983;50.744;7.086;2023-05-10T02:45:03;14.60;99.90
15765;DHT22;7983;50.744;7.086;2023-05-10T02:47:33;14.60;99.90
15765;DHT22;7983;50.744;7.086;2023-05-10T02:49:59;14.60;99.90
15765;DHT22;7983;50.744;7.086;2023-05-10T02:52:46;14.60;99.90
15765;DHT22;7983;50.744;7.086;2023-05-10T02:55:16;14.60;99.90
15765;DHT22;7983;50.744;7.086;2023-05-10T02:57:48;14.60;99.90
15765;DHT22;7983;50.744;7.086;2023-05-10T03:00:16;14.60;99.90
15765;DHT22;7983;50.744;7.086;2023-05-10T03:02:41;14.60;99.90
15765;DHT22;7983;50.744;7.086;2023-05-10T03:05:07;14.60;99.90
15765;DHT22;7983;50.744;7.086;2023-05-10T03:07:33;14.60;99.90
15765;DHT22;7983;50.744;7.086;2023-05-10T03:10:02;14.60;99.90
15765;DHT22;7983;50.744;7.086;2023-05-10T03:15:11;14.70;99.90
15765;DHT22;7983;50.744;7.086;2023-05-10T03:18:04;14.60;99.90
15765;DHT22;7983;50.744;7.086;2023-05-10T03:20:42;14.70;99.90
15765;DHT22;7983;50.744;7.086;2023-05-10T03:25:46;14.70;99.90
15765;DHT22;7983;50.744;7.086;2023-05-10T03:28:16;14.70;99.90
15765;DHT22;7983;50.744;7.086;2023-05-10T03:30:44;14.70;99.90
15765;DHT22;7983;50.744;7.086;2023-05-10T03:33:11;14.60;99.90
15765;DHT22;7983;50.744;7.086;2023-05-10T03:35:38;14.60;99.90
15765;DHT22;7983;50.744;7.086;2023-05-10T03:38:04;14.60;99.90
15765;DHT22;7983;50.744;7.086;2023-05-10T03:40:30;14.70;99.90
15765;DHT22;7983;50.744;7.086;2023-05-10T03:42:59;14.70;99.90
15765;DHT22;7983;50.744;7.086;2023-05-10T03:45:25;14.70;99.90
15765;DHT22;7983;50.744;7.086;2023-05-10T03:47:57;14.70;99.90
15765;DHT22;7983;50.744;7.086;2023-05-10T03:50:22;14.70;99.90
15765;DHT22;7983;50.744;7.086;2023-05-10T03:52:48;14.70;99.90
15765;DHT22;7983;50.744;7.086;2023-05-10T03:55:13;14.70;99.90
15765;DHT22;7983;50.744;7.086;2023-05-10T03:57:41;14.70;99.90
15765;DHT22;7983;50.744;7.086;2023-05-10T04:00:10;14.70;99.90
15765;DHT22;7983;50.744;7.086;2023-05-10T04:02:38;14.70;99.90
15765;DHT22;7983;50.744;7.086;2023-05-10T04:05:04;14.70;99.90
15765;DHT22;7983;50.744;7.086;2023-05-10T04:07:30;14.70;99.90
15765;DHT22;7983;50.744;7.086;2023-05-10T04:09:56;14.70;99.90
15765;DHT22;7983;50.744;7.086;2023-05-10T04:12:21;14.70;99.90
15765;DHT22;7983;50.744;7.086;2023-05-10T04:14:49;14.70;99.90
15765;DHT22;7983;50.744;7.086;2023-05-10T04:17:14;14.70;99.90
15765;DHT22;7983;50.744;7.086;2023-05-10T04:19:42;14.80;99.90
15765;DHT22;7983;50.744;7.086;2023-05-10T04:22:08;14.80;99.90
15765;DHT22;7983;50.744;7.086;2023-05-10T04:24:34;14.80;99.90
15765;DHT22;7983;50.744;7.086;2023-05-10T04:27:02;14.90;99.90
15765;DHT22;7983;50.744;7.086;2023-05-10T04:29:28;14.90;99.90
15765;DHT22;7983;50.744;7.086;2023-05-10T04:31:54;15.00;99.90
15765;DHT22;7983;50.744;7.086;2023-05-10T04:34:25;14.90;99.90
15765;DHT22;7983;50.744;7.086;2023-05-10T04:36:51;15.00;99.90
15765;DHT22;7983;50.744;7.086;2023-05-10T04:39:16;15.00;99.90
15765;DHT22;7983;50.744;7.086;2023-05-10T04:41:48;14.90;99.90
15765;DHT22;7983;50.744;7.086;2023-05-10T04:44:14;14.90;99.90
15765;DHT22;7983;50.744;7.086;2023-05-10T04:46:42;15.00;99.90
15765;DHT22;7983;50.744;7.086;2023-05-10T04:49:07;15.00;99.90
15765;DHT22;7983;50.744;7.086;2023-05-10T04:51:35;15.00;99.90
15765;DHT22;7983;50.744;7.086;2023-05-10T04:54:01;15.00;99.90
15765;DHT22;7983;50.744;7.086;2023-05-10T04:56:26;15.00;99.90
15765;DHT22;7983;50.744;7.086;2023-05-10T04:58:52;15.00;99.90
15765;DHT22;7983;50.744;7.086;2023-05-10T05:01:20;15.00;99.90
15765;DHT22;7983;50.744;7.086;2023-05-10T05:03:45;15.00;99.90
15765;DHT22;7983;50.744;7.086;2023-05-10T05:06:11;15.10;99.90
15765;DHT22;7983;50.744;7.086;2023-05-10T05:08:39;15.10;99.90
15765;DHT22;7983;50.744;7.086;2023-05-10T05:11:05;15.10;99.90
15765;DHT22;7983;50.744;7.086;2023-05-10T05:13:35;15.10;99.90
15765;DHT22;7983;50.744;7.086;2023-05-10T05:16:01;15.20;99.90
15765;DHT22;7983;50.744;7.086;2023-05-10T05:18:30;15.20;99.90
15765;DHT22;7983;50.744;7.086;2023-05-10T05:20:56;15.10;99.90
15765;DHT22;7983;50.744;7.086;2023-05-10T05:23:24;15.20;99.90
15765;DHT22;7983;50.744;7.086;2023-05-10T05:25:57;15.20;99.90
15765;DHT22;7983;50.744;7.086;2023-05-10T05:28:22;15.20;99.90
15765;DHT22;7983;50.744;7.086;2023-05-10T05:30:48;15.10;99.90
15765;DHT22;7983;50.744;7.086;2023-05-10T05:33:16;15.10;99.90
15765;DHT22;7983;50.744;7.086;2023-05-10T05:35:45;15.20;99.90
15765;DHT22;7983;50.744;7.086;2023-05-10T05:38:16;15.20;99.90
15765;DHT22;7983;50.744;7.086;2023-05-10T05:40:48;15.20;99.90
15765;DHT22;7983;50.744;7.086;2023-05-10T05:43:13;15.20;99.90
15765;DHT22;7983;50.744;7.086;2023-05-10T05:45:39;15.20;99.90
15765;DHT22;7983;50.744;7.086;2023-05-10T05:48:07;15.30;99.90
15765;DHT22;7983;50.744;7.086;2023-05-10T05:50:33;15.30;99.90
15765;DHT22;7983;50.744;7.086;2023-05-10T05:52:59;15.30;99.90
15765;DHT22;7983;50.744;7.086;2023-05-10T05:55:24;15.40;99.90
15765;DHT22;7983;50.744;7.086;2023-05-10T05:57:53;15.50;99.90
15765;DHT22;7983;50.744;7.086;2023-05-10T06:00:21;15.50;99.90
15765;DHT22;7983;50.744;7.086;2023-05-10T06:02:47;15.50;99.90
15765;DHT22;7983;50.744;7.086;2023-05-10T06:05:13;15.60;99.90
15765;DHT22;7983;50.744;7.086;2023-05-10T06:07:39;15.60;99.90
15765;DHT22;7983;50.744;7.086;2023-05-10T06:10:08;15.70;99.90
15765;DHT22;7983;50.744;7.086;2023-05-10T06:12:36;15.70;99.90
15765;DHT22;7983;50.744;7.086;2023-05-10T06:15:02;15.80;99.90
15765;DHT22;7983;50.744;7.086;2023-05-10T06:17:28;15.80;99.90
15765;DHT22;7983;50.744;7.086;2023-05-10T06:19:54;15.80;99.90
15765;DHT22;7983;50.744;7.086;2023-05-10T06:22:20;15.80;99.90
15765;DHT22;7983;50.744;7.086;2023-05-10T06:24:48;15.80;99.90
15765;DHT22;7983;50.744;7.086;2023-05-10T06:27:13;15.80;99.90
15765;DHT22;7983;50.744;7.086;2023-05-10T06:29:39;15.80;99.90
15765;DHT22;7983;50.744;7.086;2023-05-10T06:32:07;15.80;99.90
15765;DHT22;7983;50.744;7.086;2023-05-10T06:34:33;15.80;99.90
15765;DHT22;7983;50.744;7.086;2023-05-10T06:36:58;15.90;99.90
15765;DHT22;7983;50.744;7.086;2023-05-10T06:39:24;15.90;99.90
15765;DHT22;7983;50.744;7.086;2023-05-10T06:41:52;15.90;99.90
15765;DHT22;7983;50.744;7.086;2023-05-10T06:44:19;15.90;99.90
15765;DHT22;7983;50.744;7.086;2023-05-10T06:46:45;15.90;99.90
15765;DHT22;7983;50.744;7.086;2023-05-10T06:49:10;15.80;99.90
15765;DHT22;7983;50.744;7.086;2023-05-10T06:51:38;15.80;99.90
15765;DHT22;7983;50.744;7.086;2023-05-10T06:54:06;15.80;99.90
15765;DHT22;7983;50.744;7.086;2023-05-10T06:56:34;15.80;99.90
15765;DHT22;7983;50.744;7.086;2023-05-10T06:59:02;15.80;99.90
15765;DHT22;7983;50.744;7.086;2023-05-10T07:01:28;15.80;99.90
15765;DHT22;7983;50.744;7.086;2023-05-10T07:03:54;15.80;99.90
15765;DHT22;7983;50.744;7.086;2023-05-10T07:06:24;15.70;99.90
15765;DHT22;7983;50.744;7.086;2023-05-10T07:08:50;15.70;99.90
15765;DHT22;7983;50.744;7.086;2023-05-10T07:11:15;15.70;99.90
15765;DHT22;7983;50.744;7.086;2023-05-10T07:13:41;15.70;99.90
15765;DHT22;7983;50.744;7.086;2023-05-10T07:16:09;15.70;99.90
15765;DHT22;7983;50.744;7.086;2023-05-10T07:18:35;15.70;99.90
15765;DHT22;7983;50.744;7.086;2023-05-10T07:21:01;15.70;99.90
15765;DHT22;7983;50.744;7.086;2023-05-10T07:23:29;15.60;99.90
15765;DHT22;7983;50.744;7.086;2023-05-10T07:25:55;15.60;99.90
15765;DHT22;7983;50.744;7.086;2023-05-10T07:28:23;15.70;99.90
15765;DHT22;7983;50.744;7.086;2023-05-10T07:30:49;15.70;99.90
15765;DHT22;7983;50.744;7.086;2023-05-10T07:33:15;15.70;99.90
15765;DHT22;7983;50.744;7.086;2023-05-10T07:35:41;15.70;99.90
15765;DHT22;7983;50.744;7.086;2023-05-10T07:38:09;15.70;99.90
15765;DHT22;7983;50.744;7.086;2023-05-10T07:40:38;15.80;99.90
15765;DHT22;7983;50.744;7.086;2023-05-10T07:43:04;15.80;99.90
15765;DHT22;7983;50.744;7.086;2023-05-10T07:45:30;15.80;99.90
15765;DHT22;7983;50.744;7.086;2023-05-10T07:47:55;15.90;99.90
15765;DHT22;7983;50.744;7.086;2023-05-10T07:50:21;15.90;99.90
15765;DHT22;7983;50.744;7.086;2023-05-10T07:52:49;15.90;99.90
15765;DHT22;7983;50.744;7.086;2023-05-10T07:55:15;16.00;99.90
15765;DHT22;7983;50.744;7.086;2023-05-10T07:57:43;16.00;99.90
15765;DHT22;7983;50.744;7.086;2023-05-10T08:00:09;16.00;99.90
15765;DHT22;7983;50.744;7.086;2023-05-10T08:02:37;16.10;99.90
15765;DHT22;7983;50.744;7.086;2023-05-10T08:05:03;16.10;99.90
15765;DHT22;7983;50.744;7.086;2023-05-10T08:07:30;16.10;99.90
15765;DHT22;7983;50.744;7.086;2023-05-10T08:09:56;16.10;99.90
15765;DHT22;7983;50.744;7.086;2023-05-10T08:12:22;16.10;99.90
15765;DHT22;7983;50.744;7.086;2023-05-10T08:14:49;16.10;99.90
15765;DHT22;7983;50.744;7.086;2023-05-10T08:17:15;16.10;99.90
15765;DHT22;7983;50.744;7.086;2023-05-10T08:19:41;16.10;99.90
15765;DHT22;7983;50.744;7.086;2023-05-10T08:22:06;16.20;99.90
15765;DHT22;7983;50.744;7.086;2023-05-10T08:24:32;16.20;99.90
15765;DHT22;7983;50.744;7.086;2023-05-10T08:27:13;16.20;99.90
15765;DHT22;7983;50.744;7.086;2023-05-10T08:29:41;16.30;99.90
15765;DHT22;7983;50.744;7.086;2023-05-10T08:32:06;16.40;99.90
15765;DHT22;7983;50.744;7.086;2023-05-10T08:34:32;16.50;99.90
15765;DHT22;7983;50.744;7.086;2023-05-10T08:37:00;16.50;99.90
15765;DHT22;7983;50.744;7.086;2023-05-10T08:39:33;16.60;99.90
15765;DHT22;7983;50.744;7.086;2023-05-10T08:42:02;16.60;99.90
15765;DHT22;7983;50.744;7.086;2023-05-10T08:44:30;16.60;99.90
15765;DHT22;7983;50.744;7.086;2023-05-10T08:46:59;16.60;99.90
15765;DHT22;7983;50.744;7.086;2023-05-10T08:49:33;16.60;99.90
15765;DHT22;7983;50.744;7.086;2023-05-10T08:52:03;16.70;99.90
15765;DHT22;7983;50.744;7.086;2023-05-10T08:54:31;16.60;99.90
15765;DHT22;7983;50.744;7.086;2023-05-10T08:56:56;16.70;99.90
15765;DHT22;7983;50.744;7.086;2023-05-10T08:59:22;16.70;99.90
15765;DHT22;7983;50.744;7.086;2023-05-10T09:01:50;16.70;99.90
15765;DHT22;7983;50.744;7.086;2023-05-10T09:04:16;16.70;99.90
15765;DHT22;7983;50.744;7.086;2023-05-10T09:06:44;16.70;99.90
15765;DHT22;7983;50.744;7.086;2023-05-10T09:09:10;16.60;99.90
15765;DHT22;7983;50.744;7.086;2023-05-10T09:11:35;16.60;99.90
15765;DHT22;7983;50.744;7.086;2023-05-10T09:14:04;16.50;99.90
15765;DHT22;7983;50.744;7.086;2023-05-10T09:16:30;16.40;99.90
15765;DHT22;7983;50.744;7.086;2023-05-10T09:18:56;16.30;99.90
15765;DHT22;7983;50.744;7.086;2023-05-10T09:21:24;16.20;99.90
15765;DHT22;7983;50.744;7.086;2023-05-10T09:23:55;16.20;99.90
15765;DHT22;7983;50.744;7.086;2023-05-10T09:26:25;16.10;99.90
15765;DHT22;7983;50.744;7.086;2023-05-10T09:28:57;16.10;99.90
15765;DHT22;7983;50.744;7.086;2023-05-10T09:31:23;16.00;99.90
15765;DHT22;7983;50.744;7.086;2023-05-10T09:33:50;16.00;99.90
15765;DHT22;7983;50.744;7.086;2023-05-10T09:36:19;16.10;99.90
15765;DHT22;7983;50.744;7.086;2023-05-10T09:38:49;16.10;99.90
15765;DHT22;7983;50.744;7.086;2023-05-10T09:41:20;16.20;99.90
15765;DHT22;7983;50.744;7.086;2023-05-10T09:43:47;16.20;99.90
15765;DHT22;7983;50.744;7.086;2023-05-10T09:46:12;16.30;99.90
15765;DHT22;7983;50.744;7.086;2023-05-10T09:48:48;16.30;99.90
15765;DHT22;7983;50.744;7.086;2023-05-10T09:51:21;16.40;99.90
15765;DHT22;7983;50.744;7.086;2023-05-10T09:54:17;16.40;99.90
15765;DHT22;7983;50.744;7.086;2023-05-10T09:56:43;16.50;99.90
15765;DHT22;7983;50.744;7.086;2023-05-10T09:59:12;16.60;99.90
15765;DHT22;7983;50.744;7.086;2023-05-10T10:01:38;16.60;99.90
15765;DHT22;7983;50.744;7.086;2023-05-10T10:04:06;16.70;99.90
15765;DHT22;7983;50.744;7.086;2023-05-10T10:06:39;16.70;99.90
15765;DHT22;7983;50.744;7.086;2023-05-10T10:09:11;16.80;99.90
15765;DHT22;7983;50.744;7.086;2023-05-10T10:11:37;17.00;99.90
15765;DHT22;7983;50.744;7.086;2023-05-10T10:14:04;17.10;99.90
15765;DHT22;7983;50.744;7.086;2023-05-10T10:16:30;17.20;99.90
15765;DHT22;7983;50.744;7.086;2023-05-10T10:18:57;17.30;99.90
15765;DHT22;7983;50.744;7.086;2023-05-10T10:21:23;17.40;99.90
15765;DHT22;7983;50.744;7.086;2023-05-10T10:23:49;17.50;99.90
15765;DHT22;7983;50.744;7.086;2023-05-10T10:26:18;17.60;99.90
15765;DHT22;7983;50.744;7.086;2023-05-10T10:28:49;17.70;99.90
15765;DHT22;7983;50.744;7.086;2023-05-10T10:34:10;17.80;99.90
15765;DHT22;7983;50.744;7.086;2023-05-10T10:36:46;17.80;99.90
15765;DHT22;7983;50.744;7.086;2023-05-10T10:39:13;17.70;99.90
15765;DHT22;7983;50.744;7.086;2023-05-10T10:41:48;17.60;99.90
15765;DHT22;7983;50.744;7.086;2023-05-10T10:44:33;17.50;99.90
15765;DHT22;7983;50.744;7.086;2023-05-10T10:52:26;17.60;99.90
15765;DHT22;7983;50.744;7.086;2023-05-10T11:00:29;18.00;99.90
15765;DHT22;7983;50.744;7.086;2023-05-10T11:05:34;18.00;99.90
15765;DHT22;7983;50.744;7.086;2023-05-10T11:08:08;17.90;99.90
15765;DHT22;7983;50.744;7.086;2023-05-10T11:10:37;17.90;99.90
15765;DHT22;7983;50.744;7.086;2023-05-10T11:15:48;18.20;99.90
15765;DHT22;7983;50.744;7.086;2023-05-10T11:20:44;18.70;99.90
15765;DHT22;7983;50.744;7.086;2023-05-10T11:23:15;18.90;99.90
15765;DHT22;7983;50.744;7.086;2023-05-10T11:25:47;19.20;99.90
15765;DHT22;7983;50.744;7.086;2023-05-10T11:28:13;19.40;99.90
15765;DHT22;7983;50.744;7.086;2023-05-10T11:30:40;19.60;99.90
15765;DHT22;7983;50.744;7.086;2023-05-10T11:33:06;19.70;99.90
15765;DHT22;7983;50.744;7.086;2023-05-10T11:35:38;19.70;99.90
15765;DHT22;7983;50.744;7.086;2023-05-10T11:38:08;19.80;99.90
15765;DHT22;7983;50.744;7.086;2023-05-10T11:40:35;19.80;99.90
15765;DHT22;7983;50.744;7.086;2023-05-10T11:43:04;19.90;99.90
15765;DHT22;7983;50.744;7.086;2023-05-10T11:45:34;20.10;99.90
15765;DHT22;7983;50.744;7.086;2023-05-10T11:48:01;20.20;99.90
15765;DHT22;7983;50.744;7.086;2023-05-10T11:50:27;20.30;99.90
15765;DHT22;7983;50.744;7.086;2023-05-10T11:52:56;20.40;99.90
15765;DHT22;7983;50.744;7.086;2023-05-10T11:55:22;20.50;99.90
15765;DHT22;7983;50.744;7.086;2023-05-10T11:57:53;20.50;99.90
15765;DHT22;7983;50.744;7.086;2023-05-10T12:00:20;20.50;99.90
15765;DHT22;7983;50.744;7.086;2023-05-10T12:02:48;20.40;99.90
15765;DHT22;7983;50.744;7.086;2023-05-10T12:05:13;20.40;99.90
15765;DHT22;7983;50.744;7.086;2023-05-10T12:07:39;20.30;99.90
15765;DHT22;7983;50.744;7.086;2023-05-10T12:10:12;20.20;99.90
15765;DHT22;7983;50.744;7.086;2023-05-10T12:12:44;20.20;99.90
15765;DHT22;7983;50.744;7.086;2023-05-10T12:15:22;20.20;99.90
15765;DHT22;7983;50.744;7.086;2023-05-10T12:17:49;20.20;99.90
15765;DHT22;7983;50.744;7.086;2023-05-10T12:23:01;20.10;99.90
15765;DHT22;7983;50.744;7.086;2023-05-10T12:25:36;20.00;99.90
15765;DHT22;7983;50.744;7.086;2023-05-10T12:28:07;20.00;99.90
15765;DHT22;7983;50.744;7.086;2023-05-10T12:30:35;19.90;99.90
15765;DHT22;7983;50.744;7.086;2023-05-10T12:33:09;19.90;99.90
15765;DHT22;7983;50.744;7.086;2023-05-10T12:35:53;19.80;99.90
15765;DHT22;7983;50.744;7.086;2023-05-10T12:40:55;19.70;99.90
15765;DHT22;7983;50.744;7.086;2023-05-10T12:43:21;19.70;99.90
15765;DHT22;7983;50.744;7.086;2023-05-10T12:45:47;19.70;99.90
15765;DHT22;7983;50.744;7.086;2023-05-10T12:48:14;19.60;99.90
15765;DHT22;7983;50.744;7.086;2023-05-10T12:50:42;19.50;99.90
15765;DHT22;7983;50.744;7.086;2023-05-10T12:53:10;19.40;99.90
15765;DHT22;7983;50.744;7.086;2023-05-10T12:55:36;19.30;99.90
15765;DHT22;7983;50.744;7.086;2023-05-10T12:58:04;19.20;99.90
15765;DHT22;7983;50.744;7.086;2023-05-10T13:00:29;19.00;99.90
15765;DHT22;7983;50.744;7.086;2023-05-10T13:02:55;18.80;99.90
15765;DHT22;7983;50.744;7.086;2023-05-10T13:05:21;18.70;99.90
15765;DHT22;7983;50.744;7.086;2023-05-10T13:07:46;18.60;99.90
15765;DHT22;7983;50.744;7.086;2023-05-10T13:10:14;18.50;99.90
15765;DHT22;7983;50.744;7.086;2023-05-10T13:12:42;18.50;99.90
15765;DHT22;7983;50.744;7.086;2023-05-10T13:15:10;18.50;99.90
15765;DHT22;7983;50.744;7.086;2023-05-10T13:17:38;18.50;99.90
15765;DHT22;7983;50.744;7.086;2023-05-10T13:20:08;18.50;99.90
15765;DHT22;7983;50.744;7.086;2023-05-10T13:22:40;18.60;99.90
15765;DHT22;7983;50.744;7.086;2023-05-10T13:25:06;18.70;99.90
15765;DHT22;7983;50.744;7.086;2023-05-10T13:27:34;18.90;99.90
15765;DHT22;7983;50.744;7.086;2023-05-10T13:30:03;19.00;99.90
15765;DHT22;7983;50.744;7.086;2023-05-10T13:32:29;19.20;99.90
15765;DHT22;7983;50.744;7.086;2023-05-10T13:34:55;19.50;99.90
15765;DHT22;7983;50.744;7.086;2023-05-10T13:37:23;19.70;99.90
15765;DHT22;7983;50.744;7.086;2023-05-10T13:39:51;19.90;99.90
15765;DHT22;7983;50.744;7.086;2023-05-10T13:42:19;20.00;99.90
15765;DHT22;7983;50.744;7.086;2023-05-10T13:44:45;20.10;99.90
15765;DHT22;7983;50.744;7.086;2023-05-10T13:47:11;20.10;99.90
15765;DHT22;7983;50.744;7.086;2023-05-10T13:49:37;20.00;99.90
15765;DHT22;7983;50.744;7.086;2023-05-10T13:52:03;19.90;99.90
15765;DHT22;7983;50.744;7.086;2023-05-10T13:54:35;19.80;99.90
15765;DHT22;7983;50.744;7.086;2023-05-10T13:57:04;19.60;99.90
15765;DHT22;7983;50.744;7.086;2023-05-10T13:59:33;19.50;99.90
15765;DHT22;7983;50.744;7.086;2023-05-10T14:01:59;19.30;99.90
15765;DHT22;7983;50.744;7.086;2023-05-10T14:04:25;19.20;99.90
15765;DHT22;7983;50.744;7.086;2023-05-10T14:06:51;19.20;99.90
15765;DHT22;7983;50.744;7.086;2023-05-10T14:09:18;19.00;99.90
15765;DHT22;7983;50.744;7.086;2023-05-10T14:11:43;19.00;99.90
15765;DHT22;7983;50.744;7.086;2023-05-10T14:14:10;18.90;99.90
15765;DHT22;7983;50.744;7.086;2023-05-10T14:16:36;18.80;99.90
15765;DHT22;7983;50.744;7.086;2023-05-10T14:19:01;18.80;99.90
15765;DHT22;7983;50.744;7.086;2023-05-10T14:21:32;18.70;99.90
15765;DHT22;7983;50.744;7.086;2023-05-10T14:24:02;18.70;99.90
15765;DHT22;7983;50.744;7.086;2023-05-10T14:26:28;18.60;99.90
15765;DHT22;7983;50.744;7.086;2023-05-10T14:28:54;18.60;99.90
15765;DHT22;7983;50.744;7.086;2023-05-10T14:31:19;18.50;99.90
15765;DHT22;7983;50.744;7.086;2023-05-10T14:33:49;18.40;99.90
15765;DHT22;7983;50.744;7.086;2023-05-10T14:36:18;18.30;99.90
15765;DHT22;7983;50.744;7.086;2023-05-10T14:38:43;18.30;99.90
15765;DHT22;7983;50.744;7.086;2023-05-10T14:41:09;18.20;99.90
15765;DHT22;7983;50.744;7.086;2023-05-10T14:43:39;18.20;99.90
15765;DHT22;7983;50.744;7.086;2023-05-10T14:46:07;18.10;99.90
15765;DHT22;7983;50.744;7.086;2023-05-10T14:48:32;18.10;99.90
15765;DHT22;7983;50.744;7.086;2023-05-10T14:51:00;18.10;99.90
15765;DHT22;7983;50.744;7.086;2023-05-10T14:53:31;18.20;99.90
15765;DHT22;7983;50.744;7.086;2023-05-10T14:55:57;18.30;99.90
15765;DHT22;7983;50.744;7.086;2023-05-10T14:58:28;18.30;99.90
15765;DHT22;7983;50.744;7.086;2023-05-10T15:00:54;18.40;99.90
15765;DHT22;7983;50.744;7.086;2023-05-10T15:03:20;18.40;99.90
15765;DHT22;7983;50.744;7.086;2023-05-10T15:05:46;18.50;99.90
15765;DHT22;7983;50.744;7.086;2023-05-10T15:08:14;18.50;99.90
15765;DHT22;7983;50.744;7.086;2023-05-10T15:10:40;18.50;99.90
15765;DHT22;7983;50.744;7.086;2023-05-10T15:13:08;18.50;99.90
15765;DHT22;7983;50.744;7.086;2023-05-10T15:15:34;18.50;99.90
15765;DHT22;7983;50.744;7.086;2023-05-10T15:17:59;18.40;99.90
15765;DHT22;7983;50.744;7.086;2023-05-10T15:20:27;18.30;99.90
15765;DHT22;7983;50.744;7.086;2023-05-10T15:22:53;18.30;99.90
15765;DHT22;7983;50.744;7.086;2023-05-10T15:25:22;18.20;99.90
15765;DHT22;7983;50.744;7.086;2023-05-10T15:27:49;18.10;99.90
15765;DHT22;7983;50.744;7.086;2023-05-10T15:30:14;18.00;99.90
15765;DHT22;7983;50.744;7.086;2023-05-10T15:32:42;18.00;99.90
15765;DHT22;7983;50.744;7.086;2023-05-10T15:35:10;17.90;99.90
15765;DHT22;7983;50.744;7.086;2023-05-10T15:37:39;17.90;99.90
15765;DHT22;7983;50.744;7.086;2023-05-10T15:40:07;17.80;99.90
15765;DHT22;7983;50.744;7.086;2023-05-10T15:42:33;17.70;99.90
15765;DHT22;7983;50.744;7.086;2023-05-10T15:45:01;17.60;99.90
15765;DHT22;7983;50.744;7.086;2023-05-10T15:47:29;17.50;99.90
15765;DHT22;7983;50.744;7.086;2023-05-10T15:49:55;17.30;99.90
15765;DHT22;7983;50.744;7.086;2023-05-10T15:52:21;17.10;99.90
15765;DHT22;7983;50.744;7.086;2023-05-10T15:54:48;16.90;99.90
15765;DHT22;7983;50.744;7.086;2023-05-10T15:57:14;16.80;99.90
15765;DHT22;7983;50.744;7.086;2023-05-10T15:59:39;16.80;99.90
15765;DHT22;7983;50.744;7.086;2023-05-10T16:02:06;16.60;99.90
15765;DHT22;7983;50.744;7.086;2023-05-10T16:04:31;16.60;99.90
15765;DHT22;7983;50.744;7.086;2023-05-10T16:06:57;16.60;99.90
15765;DHT22;7983;50.744;7.086;2023-05-10T16:09:23;16.60;99.90
15765;DHT22;7983;50.744;7.086;2023-05-10T16:11:50;16.60;99.90
15765;DHT22;7983;50.744;7.086;2023-05-10T16:14:16;16.60;99.90
15765;DHT22;7983;50.744;7.086;2023-05-10T16:16:42;16.60;99.90
15765;DHT22;7983;50.744;7.086;2023-05-10T16:19:08;16.70;99.90
15765;DHT22;7983;50.744;7.086;2023-05-10T16:21:33;16.60;99.90
15765;DHT22;7983;50.744;7.086;2023-05-10T16:23:59;16.60;99.90
15765;DHT22;7983;50.744;7.086;2023-05-10T16:26:30;16.60;99.90
15765;DHT22;7983;50.744;7.086;2023-05-10T16:28:56;16.60;99.90
15765;DHT22;7983;50.744;7.086;2023-05-10T16:31:23;16.60;99.90